Time;durP1;ratioP1;P1;durP2;ratioP2;P2;SDS_P1;SDS_P2;PMS_P1;PMS_P2;Temp;Humidity;BMP_temperature;BMP_pressure;BME280_temperature;BME280_humidity;BME280_pressure;Samples;Min_cycle;Max_cycle;Signal;HPM_P1;HPM_P2
2022/04/16 00:02:13;;;;;;;32.22;12.68;;;;;;;-144.47;64.30;53483.78;5072941;28;20090;-90
2022/04/16 00:04:49;;;;;;;36.47;12.30;;;;;;;-144.47;63.93;53487.75;5078942;28;20032;-91
2022/04/16 00:07:31;;;;;;;26.30;10.95;;;;;;;-144.47;63.65;53471.84;5051090;28;20047;-89
2022/04/16 00:09:56;;;;;;;33.15;11.45;;;;;;;-144.47;63.38;53481.78;5078886;22;20441;-66
2022/04/16 00:12:21;;;;;;;33.08;11.13;;;;;;;-144.47;63.25;53467.88;5063061;28;20032;-69
2022/04/16 00:14:47;;;;;;;24.90;9.68;;;;;;;-144.47;62.81;53497.69;5065521;28;20044;-64
2022/04/16 00:17:13;;;;;;;30.60;11.38;;;;;;;-144.47;62.68;53519.53;5072400;28;20040;-66
2022/04/16 00:19:38;;;;;;;22.35;10.77;;;;;;;-144.47;62.81;53499.66;5069705;28;20056;-68
2022/04/16 00:22:07;;;;;;;23.13;9.32;;;;;;;-144.47;62.64;53501.66;5072503;28;20085;-68
2022/04/16 00:24:33;;;;;;;24.75;9.88;;;;;;;-144.47;62.38;53497.69;5070356;28;20103;-68
2022/04/16 00:26:58;;;;;;;26.63;9.85;;;;;;;-144.47;62.23;53473.84;5066848;28;20025;-68
2022/04/16 00:29:24;;;;;;;22.58;9.30;;;;;;;-144.47;62.00;53507.59;5070451;28;20043;-68
2022/04/16 00:31:49;;;;;;;24.67;9.68;;;;;;;-144.47;62.13;53475.81;5064545;28;20065;-68
2022/04/16 00:34:14;;;;;;;25.13;9.52;;;;;;;-144.47;61.98;53495.69;5071812;28;20411;-66
2022/04/16 00:36:44;;;;;;;20.17;8.80;;;;;;;-144.47;62.00;53493.72;5070543;28;20626;-65
2022/04/16 00:39:09;;;;;;;24.40;9.75;;;;;;;-144.47;62.02;53529.47;5069528;28;20125;-67
2022/04/16 00:41:35;;;;;;;25.90;9.13;;;;;;;-144.47;62.12;53491.72;5066164;28;20032;-69
2022/04/16 00:44:00;;;;;;;19.85;8.13;;;;;;;-144.47;62.08;53523.50;5071850;28;20063;-64
2022/04/16 00:46:26;;;;;;;20.95;9.60;;;;;;;-144.47;62.30;53511.59;5065778;28;20488;-67
2022/04/16 00:48:51;;;;;;;25.67;9.43;;;;;;;-144.47;62.49;53499.66;5073459;28;20024;-66
2022/04/16 00:51:16;;;;;;;19.55;8.20;;;;;;;-144.47;61.94;53503.63;5066235;28;20036;-64
2022/04/16 00:53:42;;;;;;;20.52;9.10;;;;;;;-144.47;62.27;53507.59;5071438;28;20047;-68
2022/04/16 00:56:10;;;;;;;18.42;9.75;;;;;;;-144.47;62.01;53475.81;5076520;28;20035;-65
2022/04/16 00:58:38;;;;;;;19.10;7.93;;;;;;;-144.47;62.19;53519.53;5073504;28;20048;-69
2022/04/16 01:01:03;;;;;;;22.50;9.00;;;;;;;-144.47;61.87;53487.75;5076708;28;20021;-67
2022/04/16 01:03:29;;;;;;;19.40;8.70;;;;;;;-144.47;62.17;53463.91;5072658;28;20400;-68
2022/04/16 01:05:55;;;;;;;24.67;8.90;;;;;;;-144.47;62.41;53487.75;5067920;28;20043;-71
2022/04/16 01:08:22;;;;;;;22.90;9.30;;;;;;;-144.47;62.46;53485.75;5071130;28;20032;-67
2022/04/16 01:10:47;;;;;;;19.73;8.35;;;;;;;-144.47;62.67;53521.50;5068777;28;20505;-64
2022/04/16 01:13:15;;;;;;;19.98;9.15;;;;;;;-144.47;62.71;53485.75;5068977;28;20027;-68
2022/04/16 01:15:41;;;;;;;28.27;9.65;;;;;;;-144.47;62.61;53483.78;5069995;28;20024;-66
2022/04/16 01:18:07;;;;;;;25.17;9.55;;;;;;;-144.47;62.99;53489.72;5073500;28;20029;-66
2022/04/16 01:20:34;;;;;;;25.85;8.90;;;;;;;-144.47;62.94;53515.56;5068914;28;20043;-68
2022/04/16 01:22:59;;;;;;;21.27;9.57;;;;;;;-144.47;62.85;53545.34;5069016;28;20385;-66
2022/04/16 01:25:27;;;;;;;20.55;8.48;;;;;;;-144.47;62.68;53495.69;5072363;28;20047;-68
2022/04/16 01:27:53;;;;;;;27.35;9.50;;;;;;;-144.47;62.67;53477.81;5081918;28;20020;-67
2022/04/16 01:30:20;;;;;;;23.55;9.32;;;;;;;-144.47;62.66;53477.81;5074150;28;20044;-68
2022/04/16 01:32:46;;;;;;;21.02;8.50;;;;;;;-144.47;62.98;53477.81;5073422;28;20040;-67
2022/04/16 01:35:11;;;;;;;25.48;9.75;;;;;;;-144.47;62.96;53487.75;5068714;28;20028;-67
2022/04/16 01:37:37;;;;;;;16.45;8.45;;;;;;;-144.47;62.92;53495.69;5074037;28;20039;-67
2022/04/16 01:40:09;;;;;;;21.25;7.75;;;;;;;-144.47;62.61;53503.63;5068575;28;20024;-69
2022/04/16 01:42:35;;;;;;;24.40;7.03;;;;;;;-144.47;62.12;53491.72;5065403;28;20048;-67
2022/04/16 01:45:06;;;;;;;18.98;6.70;;;;;;;-144.47;61.91;53533.44;5069247;28;20033;-65
2022/04/16 01:47:36;;;;;;;13.05;5.55;;;;;;;-144.47;61.61;53517.53;5072297;28;20032;-66
2022/04/16 01:50:01;;;;;;;18.95;6.93;;;;;;;-144.47;61.56;53513.56;5065273;28;20032;-68
2022/04/16 01:52:26;;;;;;;18.65;5.60;;;;;;;-144.47;61.59;53493.72;5080024;28;20085;-67
2022/04/16 01:54:52;;;;;;;15.48;6.13;;;;;;;-144.47;61.42;53507.59;5067650;28;20052;-66
2022/04/16 01:57:19;;;;;;;25.13;6.55;;;;;;;-144.47;61.79;53499.66;5073963;28;20401;-65
2022/04/16 01:59:48;;;;;;;14.27;6.45;;;;;;;-144.47;62.03;53513.56;5067705;28;20496;-69
2022/04/16 02:02:13;;;;;;;;;;;;;;;-144.47;62.28;53491.72;5069075;28;20158;-66
2022/04/16 02:04:39;;;;;;;14.93;6.28;;;;;;;-144.47;62.33;53499.66;5072269;28;20034;-64
2022/04/16 02:07:05;;;;;;;13.27;5.18;;;;;;;-144.47;62.28;53511.59;5068085;28;20078;-67
2022/04/16 02:09:30;;;;;;;20.00;5.78;;;;;;;-144.47;62.43;53463.91;5074741;28;20032;-66
2022/04/16 02:11:55;;;;;;;14.13;5.50;;;;;;;-144.47;62.57;53505.63;5072215;28;20147;-69
2022/04/16 02:14:23;;;;;;;17.45;5.28;;;;;;;-144.47;62.97;53505.63;5074829;28;20111;-67
2022/04/16 02:16:49;;;;;;;20.25;5.43;;;;;;;-144.47;63.21;53505.63;5067349;28;20071;-64
2022/04/16 02:19:17;;;;;;;16.10;4.63;;;;;;;-144.47;63.06;53501.66;5069144;28;20048;-67
2022/04/16 02:21:47;;;;;;;15.97;5.03;;;;;;;-144.47;63.20;53479.81;5064756;28;20024;-65
2022/04/16 02:24:13;;;;;;;14.18;4.82;;;;;;;-144.47;63.23;53469.88;5069899;28;20111;-67
2022/04/16 02:26:41;;;;;;;14.30;5.88;;;;;;;-144.47;63.30;53487.75;5069822;28;20448;-66
2022/04/16 02:29:10;;;;;;;17.10;5.53;;;;;;;-144.47;63.48;53553.31;5068097;28;20150;-67
2022/04/16 02:31:37;;;;;;;;;;;;;;;-144.47;63.58;53471.84;5067751;28;20266;-69
2022/04/16 02:34:05;;;;;;;13.13;4.55;;;;;;;-144.47;63.45;53489.72;5071010;28;19908;-68
2022/04/16 02:36:30;;;;;;;12.18;4.72;;;;;;;-144.47;63.55;53491.72;5072585;28;20055;-64
2022/04/16 02:38:57;;;;;;;11.55;4.85;;;;;;;-144.47;63.09;53475.81;5072029;28;20701;-66
2022/04/16 02:41:23;;;;;;;19.45;5.22;;;;;;;-144.47;63.34;53535.41;5067089;28;20091;-71
2022/04/16 02:43:49;;;;;;;13.35;4.57;;;;;;;-144.47;63.55;53571.19;5066730;28;20029;-67
2022/04/16 02:48:58;;;;;;;14.15;4.95;;;;;;;-144.47;63.55;53487.75;5067033;28;20078;-66
2022/04/16 02:51:24;;;;;;;11.68;4.32;;;;;;;-144.47;63.66;53521.50;5065388;28;20024;-65
2022/04/16 02:53:49;;;;;;;12.55;5.22;;;;;;;-144.47;63.92;53523.50;5071427;28;20229;-67
2022/04/16 02:56:15;;;;;;;15.25;4.35;;;;;;;-144.47;63.46;53535.41;5066910;28;20073;-64
2022/04/16 02:58:41;;;;;;;26.17;5.13;;;;;;;-144.47;62.81;53523.50;5073651;28;20036;-67
2022/04/16 03:01:06;;;;;;;13.25;5.18;;;;;;;-144.47;61.98;53475.81;5066226;28;20695;-67
2022/04/16 03:03:32;;;;;;;12.45;4.55;;;;;;;-144.47;61.38;53527.47;5072799;28;20444;-67
2022/04/16 03:05:57;;;;;;;15.38;4.13;;;;;;;-144.47;61.62;53543.38;5066675;28;20067;-67
2022/04/16 03:08:24;;;;;;;11.73;4.30;;;;;;;-144.47;61.30;53475.81;5067180;28;20064;-64
2022/04/16 03:10:50;;;;;;;14.57;4.22;;;;;;;-144.47;61.48;53515.56;5066027;28;20036;-68
2022/04/16 03:13:16;;;;;;;13.52;4.82;;;;;;;-144.47;61.86;53485.75;5075051;28;20043;-68
2022/04/16 03:18:25;;;;;;;7.82;3.47;;;;;;;-144.47;61.38;53517.53;5070455;28;20043;-65
2022/04/16 03:20:51;;;;;;;16.00;4.35;;;;;;;-144.47;61.29;53507.59;5070046;28;20067;-68
2022/04/16 03:23:16;;;;;;;11.15;4.20;;;;;;;-144.47;61.28;53505.63;5066734;28;20118;-66
2022/04/16 03:25:43;;;;;;;12.82;3.95;;;;;;;-144.47;61.14;53507.59;5069976;28;20075;-67
2022/04/16 03:28:09;;;;;;;13.80;4.05;;;;;;;-144.47;61.05;53497.69;5066340;28;20529;-67
2022/04/16 03:30:35;;;;;;;14.80;3.60;;;;;;;-144.47;61.35;53507.59;5072851;28;20029;-68
2022/04/16 03:33:01;;;;;;;13.85;3.90;;;;;;;-144.47;61.74;53507.59;5071886;28;20402;-66
2022/04/16 03:35:26;;;;;;;9.27;3.58;;;;;;;-144.47;61.71;53499.66;5066090;28;20040;-67
2022/04/16 03:37:52;;;;;;;14.55;3.47;;;;;;;-144.47;61.56;53505.63;5071490;28;20043;-66
2022/04/16 03:40:19;;;;;;;12.63;3.75;;;;;;;-144.47;61.64;53525.50;5065818;28;20037;-69
2022/04/16 03:42:52;;;;;;;8.98;3.83;;;;;;;-144.47;62.13;53499.66;5061227;28;20040;-64
2022/04/16 03:45:23;;;;;;;14.18;3.65;;;;;;;-144.47;62.06;53517.53;5069494;28;20033;-66
2022/04/16 03:47:48;;;;;;;10.80;3.78;;;;;;;-144.47;62.42;53521.50;5065954;28;20064;-63
2022/04/16 03:50:15;;;;;;;13.18;4.00;;;;;;;-144.47;62.45;53523.50;5066380;28;20170;-69
2022/04/16 03:52:41;;;;;;;10.65;4.13;;;;;;;-144.47;62.11;53529.47;5075008;28;20157;-68
2022/04/16 04:00:39;;;;;;;8.10;4.40;;;;;;;-144.47;62.71;53539.41;5063073;28;20115;-67
2022/04/16 04:03:05;;;;;;;14.15;4.30;;;;;;;-144.47;62.75;53505.63;5067614;28;20085;-68
2022/04/16 04:05:30;;;;;;;14.05;4.25;;;;;;;-144.47;62.57;53511.59;5070681;28;20355;-65
2022/04/16 04:07:55;;;;;;;9.65;4.10;;;;;;;-144.47;62.28;53529.47;5066712;28;20029;-66
2022/04/16 04:10:20;;;;;;;11.38;4.00;;;;;;;-144.47;61.74;53467.88;5070676;28;20041;-66
2022/04/16 04:12:46;;;;;;;10.60;3.50;;;;;;;-144.47;61.28;53503.63;5064755;28;20021;-67
2022/04/16 04:15:11;;;;;;;13.77;3.75;;;;;;;-144.47;60.60;53503.63;5066934;28;20056;-67
2022/04/16 04:17:36;;;;;;;13.52;3.80;;;;;;;-144.47;60.73;53501.66;5071242;28;20036;-68
2022/04/16 04:20:02;;;;;;;16.63;4.35;;;;;;;-144.47;60.54;53507.59;5073159;28;20032;-66
2022/04/16 04:22:27;;;;;;;12.27;3.40;;;;;;;-144.47;60.22;53527.47;5065311;28;20052;-67
2022/04/16 04:24:52;;;;;;;6.95;3.28;;;;;;;-144.47;59.97;53527.47;5066229;28;20032;-63
2022/04/16 04:27:18;;;;;;;16.55;3.67;;;;;;;-144.47;59.75;53495.69;5065574;28;20115;-67
2022/04/16 04:29:43;;;;;;;9.98;3.13;;;;;;;-144.47;60.04;53507.59;5072540;28;20051;-68
2022/04/16 04:32:09;;;;;;;8.15;3.88;;;;;;;-144.47;60.06;53481.78;5067387;28;20033;-67
2022/04/16 04:34:34;;;;;;;7.93;3.38;;;;;;;-144.47;59.76;53501.66;5070526;28;20041;-69
2022/04/16 04:37:00;;;;;;;8.00;3.45;;;;;;;-144.47;59.93;53515.56;5069165;28;20037;-67
2022/04/16 04:39:28;;;;;;;5.53;2.70;;;;;;;-144.47;59.50;53481.78;5071512;28;20717;-67
2022/04/16 04:41:54;;;;;;;6.43;3.17;;;;;;;-144.47;59.67;53507.59;5068908;28;20509;-68
2022/04/16 04:44:19;;;;;;;8.82;2.78;;;;;;;-144.47;59.52;53513.56;5067367;28;20060;-66
2022/04/16 04:46:44;;;;;;;9.07;3.67;;;;;;;-144.47;59.68;53467.88;5068315;28;20205;-69
2022/04/16 04:49:11;;;;;;;6.53;3.53;;;;;;;-144.47;59.45;53497.69;5068751;28;20127;-65
2022/04/16 04:51:40;;;;;;;9.80;3.42;;;;;;;-144.47;59.11;53527.47;5071265;28;20017;-68
2022/04/16 04:54:07;;;;;;;11.45;3.50;;;;;;;-144.47;58.81;53507.59;5068080;28;20028;-68
2022/04/16 04:56:32;;;;;;;5.63;3.08;;;;;;;-144.47;58.35;53523.50;5072933;28;20043;-66
2022/04/16 04:58:58;;;;;;;8.40;3.50;;;;;;;-144.47;57.83;53487.75;5069828;28;20028;-68
2022/04/16 05:03:50;;;;;;;11.80;3.42;;;;;;;-144.47;58.33;53497.69;5049598;28;20037;-67
2022/04/16 05:06:16;;;;;;;10.60;3.70;;;;;;;-144.47;57.96;53501.66;5033252;28;20067;-66
2022/04/16 05:08:42;;;;;;;11.20;4.35;;;;;;;-144.47;57.96;53497.69;5033695;28;20442;-64
2022/04/16 05:11:07;;;;;;;9.55;3.15;;;;;;;-144.47;57.90;53491.72;5050566;28;20043;-67
2022/04/16 05:13:32;;;;;;;15.85;3.38;;;;;;;-144.47;57.78;53497.69;5047519;28;20037;-67
2022/04/16 05:15:58;;;;;;;6.57;3.08;;;;;;;-144.47;58.04;53519.53;5048309;28;20155;-66
2022/04/16 05:18:23;;;;;;;6.70;3.00;;;;;;;-144.47;57.63;53501.66;5051890;28;20017;-68
2022/04/16 05:20:48;;;;;;;7.05;3.78;;;;;;;-144.47;57.76;53523.50;5045507;28;20030;-68
2022/04/16 05:23:14;;;;;;;7.57;3.20;;;;;;;-144.47;57.61;53513.56;5047625;28;20033;-66
2022/04/16 05:25:39;;;;;;;9.82;3.55;;;;;;;-144.47;57.25;53503.63;5045222;28;20186;-66
2022/04/16 05:28:04;;;;;;;14.07;3.67;;;;;;;-144.47;57.35;53467.88;5029834;28;20539;-67
2022/04/16 05:30:38;;;;;;;9.05;3.30;;;;;;;-144.47;57.34;53505.63;5041835;28;20068;-64
2022/04/16 05:33:05;;;;;;;7.60;3.20;;;;;;;-144.47;56.73;53491.72;5038068;28;20044;-68
2022/04/16 05:35:31;;;;;;;6.30;3.05;;;;;;;-144.47;56.74;53481.78;5048977;28;20072;-68
2022/04/16 05:37:56;;;;;;;9.05;3.30;;;;;;;-144.47;56.64;53477.81;5032024;28;20025;-64
2022/04/16 05:40:22;;;;;;;9.85;4.05;;;;;;;-144.47;56.97;53495.69;5052999;28;20048;-67
2022/04/16 05:42:47;;;;;;;9.50;3.45;;;;;;;-144.47;57.01;53507.59;5046975;28;20025;-65
2022/04/16 05:45:14;;;;;;;8.07;3.28;;;;;;;-144.47;56.81;53521.50;5051358;28;20561;-65
2022/04/16 05:47:41;;;;;;;5.93;2.92;;;;;;;-144.47;57.04;53479.81;5050945;28;20033;-68
2022/04/16 05:50:07;;;;;;;14.07;3.55;;;;;;;-144.47;57.86;53515.56;5049113;28;20026;-64
2022/04/16 05:52:34;;;;;;;9.43;3.80;;;;;;;-144.47;57.79;53555.28;5035870;28;20033;-67
2022/04/16 05:55:00;;;;;;;6.55;2.88;;;;;;;-144.47;57.52;53511.59;5052855;28;20096;-64
2022/04/16 05:57:26;;;;;;;10.05;3.28;;;;;;;-144.47;57.63;53519.53;5054554;28;20391;-66
2022/04/16 05:59:51;;;;;;;11.52;3.67;;;;;;;-144.47;57.46;53525.50;5034318;28;20512;-65
2022/04/16 06:02:17;;;;;;;11.05;3.72;;;;;;;-144.47;57.73;53503.63;5050932;28;20079;-65
2022/04/16 06:04:42;;;;;;;11.43;3.53;;;;;;;-144.47;57.83;53507.59;5046519;28;20560;-67
2022/04/16 06:07:08;;;;;;;6.78;3.08;;;;;;;-144.47;57.91;53501.66;5052367;28;20017;-65
2022/04/16 06:09:33;;;;;;;8.18;3.90;;;;;;;-144.47;57.44;53521.50;5052180;28;20091;-66
2022/04/16 06:12:03;;;;;;;8.73;3.85;;;;;;;-144.47;57.88;53497.69;5050067;28;20029;-68
2022/04/16 06:14:29;;;;;;;6.72;3.33;;;;;;;-144.47;57.58;53517.53;5050857;28;20021;-66
2022/04/16 06:16:54;;;;;;;7.20;3.30;;;;;;;-144.47;57.39;53489.72;5048093;28;20095;-66
2022/04/16 06:19:19;;;;;;;7.95;3.17;;;;;;;-144.47;57.19;53519.53;5050396;28;20440;-67
2022/04/16 06:21:44;;;;;;;7.90;3.13;;;;;;;-144.47;56.89;53517.53;5050983;28;20024;-67
2022/04/16 06:24:10;;;;;;;6.93;3.33;;;;;;;-144.47;56.62;53505.63;5051100;28;20097;-65
2022/04/16 06:26:35;;;;;;;8.45;3.50;;;;;;;-144.47;56.97;53483.78;5029420;28;20037;-65
2022/04/16 06:29:01;;;;;;;6.80;3.00;;;;;;;-144.47;55.75;53499.66;5047676;28;20029;-66
2022/04/16 06:31:26;;;;;;;9.32;3.05;;;;;;;-144.47;55.93;53489.72;5046976;28;20041;-64
2022/04/16 06:33:51;;;;;;;6.82;2.78;;;;;;;-144.47;55.56;53497.69;5048542;28;20013;-68
2022/04/16 06:36:17;;;;;;;9.48;3.25;;;;;;;-144.47;55.63;53539.41;5050771;28;20059;-67
2022/04/16 06:38:42;;;;;;;7.22;3.17;;;;;;;-144.47;55.67;53527.47;5030478;28;20180;-68
2022/04/16 06:41:08;;;;;;;7.28;2.80;;;;;;;-144.47;54.85;53483.78;5036359;28;20513;-67
2022/04/16 06:43:33;;;;;;;8.68;3.15;;;;;;;-144.47;55.02;53497.69;5047423;28;20033;-65
2022/04/16 06:45:58;;;;;;;7.97;2.78;;;;;;;-144.47;55.03;53501.66;5048722;28;20104;-67
2022/04/16 06:48:23;;;;;;;14.25;4.15;;;;;;;-144.47;54.32;53499.66;5034810;28;20031;-65
2022/04/16 06:50:49;;;;;;;7.38;2.90;;;;;;;-144.47;54.40;53523.50;5041294;28;20051;-67
2022/04/16 06:53:15;;;;;;;7.88;2.78;;;;;;;-144.47;54.35;53521.50;5043282;28;20041;-64
2022/04/16 06:55:40;;;;;;;8.55;3.03;;;;;;;-144.47;54.22;53457.94;5038916;28;20048;-68
2022/04/16 06:58:06;;;;;;;5.55;2.58;;;;;;;-144.47;53.88;53481.78;5045203;28;20075;-65
2022/04/16 07:00:31;;;;;;;10.48;3.05;;;;;;;-144.47;53.75;53491.72;5039017;28;20131;-67
2022/04/16 07:02:56;;;;;;;7.65;2.97;;;;;;;-144.47;53.45;53471.84;5042861;28;20132;-65
2022/04/16 07:05:22;;;;;;;6.90;2.67;;;;;;;-144.47;53.37;53444.03;5040102;28;20518;-67
2022/04/16 07:07:47;;;;;;;6.85;2.65;;;;;;;-144.47;53.51;53471.84;5049352;28;20494;-65
2022/04/16 07:10:12;;;;;;;6.13;2.85;;;;;;;-144.47;53.14;53485.75;5045233;28;20029;-69
2022/04/16 07:12:38;;;;;;;12.23;3.75;;;;;;;-144.47;53.18;53483.78;5045669;28;20027;-67
2022/04/16 07:15:05;;;;;;;9.23;2.75;;;;;;;-144.47;53.02;53497.69;5026643;28;20072;-68
2022/04/16 07:17:30;;;;;;;6.18;2.47;;;;;;;-144.47;53.08;53521.50;5052898;28;20083;-65
2022/04/16 07:19:55;;;;;;;8.50;2.95;;;;;;;-144.47;53.34;53459.94;5059982;28;20033;-65
2022/04/16 07:22:21;;;;;;;6.15;2.92;;;;;;;-144.47;53.24;53471.84;5049614;28;20036;-67
2022/04/16 07:24:48;;;;;;;10.70;2.67;;;;;;;-144.47;52.14;53503.63;5048800;28;20025;-66
2022/04/16 07:27:14;;;;;;;5.07;2.50;;;;;;;-144.47;53.03;53461.91;5052438;28;20033;-67
2022/04/16 07:29:40;;;;;;;8.93;2.75;;;;;;;-144.47;52.94;53481.78;5045842;28;20041;-69
2022/04/16 07:32:05;;;;;;;7.03;2.72;;;;;;;-144.47;52.29;53465.91;5027446;28;20033;-66
2022/04/16 07:34:31;;;;;;;11.43;2.90;;;;;;;-144.47;51.85;53473.84;5051105;28;20403;-67
2022/04/16 07:36:56;;;;;;;7.43;2.30;;;;;;;-144.47;51.67;53489.72;5048490;28;20587;-68
2022/04/16 07:39:22;;;;;;;6.80;2.97;;;;;;;-144.47;51.64;53446.03;5047338;28;20565;-68
2022/04/16 07:41:49;;;;;;;7.43;3.08;;;;;;;-144.47;51.54;53519.53;5048274;28;20033;-64
2022/04/16 07:44:18;;;;;;;5.65;2.40;;;;;;;-144.47;51.65;53455.97;5032593;28;20051;-67
2022/04/16 07:46:44;;;;;;;10.00;3.15;;;;;;;-144.47;51.56;53467.88;5047106;28;20067;-65
2022/04/16 07:49:09;;;;;;;6.45;2.90;;;;;;;-144.47;51.82;53489.72;5017274;28;20045;-67
2022/04/16 07:51:37;;;;;;;6.65;2.92;;;;;;;-144.47;51.05;53455.97;5050974;28;20547;-69
2022/04/16 07:54:03;;;;;;;9.48;2.88;;;;;;;-144.47;49.49;53511.59;5048958;28;20032;-68
2022/04/16 07:56:28;;;;;;;8.20;2.63;;;;;;;-144.47;49.13;53459.94;5043259;28;20083;-64
2022/04/16 07:58:55;;;;;;;8.52;2.90;;;;;;;-144.47;49.03;53469.88;5029730;28;20037;-73
2022/04/16 08:01:21;;;;;;;15.57;3.33;;;;;;;-144.47;49.01;53467.88;5027069;28;20037;-69
2022/04/16 08:03:46;;;;;;;8.77;2.40;;;;;;;-144.47;48.17;53444.03;5042433;28;20493;-67
2022/04/16 08:06:12;;;;;;;10.70;3.40;;;;;;;-144.47;49.14;53477.81;5038593;28;20048;-67
2022/04/16 08:08:37;;;;;;;4.78;2.20;;;;;;;-144.47;48.00;53459.94;5040664;28;20056;-68
2022/04/16 08:11:02;;;;;;;6.35;2.42;;;;;;;-144.47;47.67;53446.03;5047855;28;20086;-68
2022/04/16 08:13:28;;;;;;;5.75;2.38;;;;;;;-144.47;48.20;53473.84;5043348;28;20033;-68
2022/04/16 08:15:53;;;;;;;5.03;2.38;;;;;;;-144.47;48.12;53453.97;5026088;28;20489;-67
2022/04/16 08:18:19;;;;;;;6.07;2.42;;;;;;;-144.47;48.41;53505.63;5025306;28;20021;-67
2022/04/16 08:20:44;;;;;;;7.07;3.22;;;;;;;-144.47;48.54;53469.88;5045110;28;20028;-69
2022/04/16 08:23:10;;;;;;;8.48;2.65;;;;;;;-144.47;48.78;53465.91;5046866;28;20469;-67
2022/04/16 08:28:03;;;;;;;7.35;2.60;;;;;;;-144.47;48.98;53452.00;5047818;28;20115;-66
2022/04/16 08:30:29;;;;;;;13.23;3.60;;;;;;;-144.47;49.44;53450.00;5040910;28;20124;-67
2022/04/16 08:32:55;;;;;;;5.78;2.50;;;;;;;-144.47;50.15;53438.09;5043802;28;20094;-66
2022/04/16 08:35:21;;;;;;;6.35;3.13;;;;;;;-144.47;49.35;53465.91;5046987;28;20421;-69
2022/04/16 08:37:48;;;;;;;8.13;2.97;;;;;;;-144.47;50.13;53452.00;5046843;28;20041;-66
2022/04/16 08:40:16;;;;;;;8.43;2.17;;;;;;;-144.47;48.47;53487.75;5047227;28;20075;-68
2022/04/16 08:42:43;;;;;;;7.40;2.45;;;;;;;-144.47;47.92;53463.91;5039928;28;20025;-67
2022/04/16 08:45:10;;;;;;;5.10;1.80;;;;;;;-144.47;47.10;53485.75;5045325;28;20030;-66
2022/04/16 08:47:37;;;;;;;6.88;1.83;;;;;;;-144.47;46.32;53463.91;5045309;28;20078;-66
2022/04/16 08:50:06;;;;;;;7.60;2.28;;;;;;;-144.47;46.65;53436.09;5044022;28;20048;-67
2022/04/16 08:52:33;;;;;;;5.47;2.20;;;;;;;-144.47;46.43;53408.28;5044839;28;20117;-68
2022/04/16 08:55:00;;;;;;;7.57;1.90;;;;;;;-144.47;46.34;53475.81;5042599;28;20036;-68
2022/04/16 08:57:28;;;;;;;8.38;2.25;;;;;;;-144.47;45.48;53457.94;5048084;28;20025;-68
2022/04/16 08:59:55;;;;;;;6.63;1.75;;;;;;;-144.47;45.35;53448.00;5034564;28;20097;-68
2022/04/16 09:02:23;;;;;;;6.38;2.00;;;;;;;-144.47;47.02;53452.00;5040492;28;20048;-67
2022/04/16 09:05:00;;;;;;;8.68;2.45;;;;;;;-144.47;47.04;53450.00;5045856;28;20121;-66
2022/04/16 09:07:25;;;;;;;6.10;2.00;;;;;;;-144.47;46.81;53436.09;5044992;28;20060;-66
2022/04/16 09:09:50;;;;;;;5.68;1.50;;;;;;;-144.47;45.41;53455.97;5047399;28;20063;-69
2022/04/16 09:12:17;;;;;;;5.80;2.25;;;;;;;-144.47;45.68;53430.13;5046439;28;20078;-65
2022/04/16 09:14:44;;;;;;;9.85;1.90;;;;;;;-144.47;45.24;53459.94;5048181;28;20033;-70
2022/04/16 09:17:17;;;;;;;7.15;2.05;;;;;;;-144.47;44.19;53450.00;5046977;28;20116;-66
2022/04/16 09:19:52;;;;;;;5.88;1.85;;;;;;;-144.47;44.43;53446.03;5047045;28;20029;-68
2022/04/16 09:22:31;;;;;;;4.78;2.08;;;;;;;-144.47;45.41;53459.94;5051165;28;20479;-67
2022/04/16 09:24:57;;;;;;;6.57;1.83;;;;;;;-144.47;44.83;53459.94;5029400;28;20082;-68
2022/04/16 09:27:22;;;;;;;5.80;2.20;;;;;;;-144.47;45.16;53434.09;5032783;28;20033;-66
2022/04/16 09:29:48;;;;;;;3.72;1.92;;;;;;;-144.47;44.88;53382.47;5044607;28;20120;-68
2022/04/16 09:32:25;;;;;;;8.02;2.05;;;;;;;-144.47;43.56;53448.00;5048783;28;20139;-67
2022/04/16 09:34:52;;;;;;;2.67;1.55;;;;;;;-144.47;43.62;53455.97;5051029;28;20048;-69
2022/04/16 09:37:17;;;;;;;5.97;1.90;;;;;;;-144.47;43.06;53442.06;5047050;28;20037;-69
2022/04/16 09:39:43;;;;;;;4.53;1.95;;;;;;;-144.47;42.45;53434.09;5048861;28;20438;-68
2022/04/16 09:42:08;;;;;;;4.90;1.67;;;;;;;-144.47;43.25;53461.91;5043843;28;20033;-66
2022/04/16 09:44:33;;;;;;;9.63;1.92;;;;;;;-144.47;42.85;53455.97;5048369;28;20063;-67
2022/04/16 09:46:59;;;;;;;4.22;1.77;;;;;;;-144.47;42.63;53455.97;5031872;28;20492;-67
2022/04/16 09:49:25;;;;;;;7.47;1.85;;;;;;;-144.47;42.57;53448.00;5049587;28;20028;-67
2022/04/16 09:51:51;;;;;;;3.65;1.45;;;;;;;-144.47;43.09;53402.31;5051753;28;20078;-67
2022/04/16 09:54:17;;;;;;;5.60;2.30;;;;;;;-144.47;42.62;53432.13;5029372;28;20028;-68
2022/04/16 09:56:48;;;;;;;4.63;1.60;;;;;;;-144.47;43.55;53440.06;5044516;28;20576;-67
2022/04/16 09:59:15;;;;;;;4.63;1.73;;;;;;;-144.47;43.52;53412.25;5047501;28;20053;-67
2022/04/16 10:01:47;;;;;;;4.10;1.70;;;;;;;-144.47;43.65;53459.94;5045167;28;20057;-69
2022/04/16 10:04:20;;;;;;;5.28;1.80;;;;;;;-144.47;43.45;53440.06;5050198;28;20058;-68
2022/04/16 10:06:46;;;;;;;4.45;1.63;;;;;;;-144.47;43.99;53424.19;5047953;28;20218;-68
2022/04/16 10:09:17;;;;;;;8.00;2.22;;;;;;;-144.47;44.48;53452.00;5051283;28;20029;-70
2022/04/16 10:14:58;;;;;;;4.75;1.85;;;;;;;-144.47;42.82;53408.28;5049170;28;20055;-68
2022/04/16 10:17:35;;;;;;;3.90;2.03;;;;;;;-144.47;42.93;53434.09;5040667;28;20040;-66
2022/04/16 10:20:16;;;;;;;7.70;2.05;;;;;;;-144.47;42.45;53426.16;5041342;28;20049;-67
2022/04/16 10:22:55;;;;;;;7.25;2.17;;;;;;;-144.47;42.70;53426.16;5049902;28;20143;-69
2022/04/16 10:25:40;;;;;;;5.93;2.05;;;;;;;-144.47;42.37;53420.22;5044979;28;20044;-67
2022/04/16 10:28:12;;;;;;;6.32;1.90;;;;;;;-144.47;42.27;53442.06;5042654;28;20036;-69
2022/04/16 10:30:55;;;;;;;8.57;2.13;;;;;;;-144.47;42.00;53459.94;5043840;28;20032;-67
2022/04/16 10:33:27;;;;;;;5.10;1.95;;;;;;;-144.47;42.60;53434.09;5044665;28;20502;-68
2022/04/16 10:35:58;;;;;;;4.57;2.20;;;;;;;-144.47;42.59;53416.22;5048964;28;20061;-68
2022/04/16 10:38:38;;;;;;;6.63;2.05;;;;;;;-144.47;42.67;53412.25;5045941;28;20031;-67
2022/04/16 10:41:14;;;;;;;5.85;1.98;;;;;;;-144.47;43.62;53453.97;5018844;28;20668;-68
2022/04/16 10:43:40;;;;;;;4.15;1.80;;;;;;;-144.47;43.29;53455.97;5038595;28;20039;-65
2022/04/16 10:46:08;;;;;;;4.63;1.38;;;;;;;-144.47;42.89;53455.97;5046797;28;20025;-67
2022/04/16 10:48:35;;;;;;;4.57;1.92;;;;;;;-144.47;42.65;53416.22;5030813;28;20017;-66
2022/04/16 10:51:01;;;;;;;4.60;2.00;;;;;;;-144.47;43.07;53430.13;5045027;28;20039;-68
2022/04/16 10:53:32;;;;;;;4.18;1.73;;;;;;;-144.47;42.62;53465.91;5046158;28;20112;-68
2022/04/16 10:56:13;;;;;;;4.32;1.58;;;;;;;-144.47;42.41;53424.19;5018339;28;20029;-68
2022/04/16 10:59:00;;;;;;;2.78;1.40;;;;;;;-144.47;41.97;53412.25;5026916;28;20064;-69
2022/04/16 11:06:34;;;;;;;5.20;1.45;;;;;;;-144.47;41.82;53432.13;5045370;28;20526;-72
2022/04/16 11:08:59;;;;;;;8.98;1.67;;;;;;;-144.47;41.97;53438.09;5029792;28;20064;-70
2022/04/16 11:11:25;;;;;;;4.88;1.70;;;;;;;-144.47;42.74;53432.13;5047285;28;20207;-71
2022/04/16 11:13:51;;;;;;;4.40;1.58;;;;;;;-144.47;41.39;53436.09;5026455;28;20491;-71
2022/04/16 11:16:21;;;;;;;5.55;1.58;;;;;;;-144.47;41.07;53450.00;5027117;28;20040;-69
2022/04/16 11:18:47;;;;;;;7.63;1.80;;;;;;;-144.47;41.01;53444.03;5028154;28;20493;-68
2022/04/16 11:21:24;;;;;;;3.53;1.80;;;;;;;-144.47;40.19;53426.16;5009370;28;20394;-69
2022/04/16 11:23:52;;;;;;;3.40;1.48;;;;;;;-144.47;39.49;53412.25;5027240;28;20041;-71
2022/04/16 11:34:38;;;;;;;7.70;1.88;;;;;;;-144.47;38.64;53410.28;5025135;28;20037;-68
2022/04/16 11:37:05;;;;;;;4.75;1.40;;;;;;;-144.47;38.94;53400.34;5027147;28;20033;-71
2022/04/16 11:39:31;;;;;;;2.95;1.58;;;;;;;-144.47;39.81;53392.41;5028106;28;20077;-70
2022/04/16 11:42:10;;;;;;;5.30;1.67;;;;;;;-144.47;39.91;53416.22;5023439;28;20146;-69
2022/04/16 11:44:40;;;;;;;;;;;;;;;-144.47;40.06;53404.31;5025401;28;20128;-73
2022/04/16 11:47:07;;;;;;;4.78;1.50;;;;;;;-144.47;39.51;53384.44;5027768;28;19963;-72